Time;durP1;ratioP1;P1;durP2;ratioP2;P2;SDS_P1;SDS_P2;PMS_P1;PMS_P2;Temp;Humidity;BMP_temperature;BMP_pressure;BME280_temperature;BME280_humidity;BME280_pressure;Samples;Min_cycle;Max_cycle;Signal;HPM_P1;HPM_P2
2023/04/08 00:01:10;;;;;;;0.85;0.70;;;17.80;47.10;;;;;;6340501;22;20128;-81
2023/04/08 00:03:36;;;;;;;0.50;0.50;;;17.90;47.10;;;;;;6340692;22;20132;-81
2023/04/08 00:06:03;;;;;;;0.43;0.43;;;17.80;47.20;;;;;;6340262;22;20136;-81
2023/04/08 00:08:29;;;;;;;0.60;0.60;;;17.80;47.30;;;;;;6340820;22;20163;-81
2023/04/08 00:10:55;;;;;;;0.60;0.60;;;17.80;47.30;;;;;;6341173;22;20193;-81
2023/04/08 00:13:21;;;;;;;0.80;0.80;;;17.80;47.10;;;;;;6340754;22;20183;-81
2023/04/08 00:15:47;;;;;;;0.60;0.60;;;17.80;47.20;;;;;;6313275;22;20466;-81
2023/04/08 00:18:14;;;;;;;0.63;0.63;;;17.80;47.30;;;;;;6340776;22;20136;-81
2023/04/08 00:20:41;;;;;;;0.75;0.75;;;17.80;47.30;;;;;;6342837;22;20138;-81
2023/04/08 00:23:07;;;;;;;0.60;0.60;;;17.80;47.30;;;;;;6315319;22;20458;-81
2023/04/08 00:25:32;;;;;;;0.50;0.50;;;17.80;47.30;;;;;;6342928;22;20171;-81
2023/04/08 00:27:59;;;;;;;0.60;0.60;;;17.80;47.30;;;;;;6342592;22;20587;-82
2023/04/08 00:30:26;;;;;;;0.47;0.47;;;17.80;47.30;;;;;;6315194;22;20123;-81
2023/04/08 00:32:52;;;;;;;0.65;0.55;;;17.80;47.20;;;;;;6342868;22;20134;-81
2023/04/08 00:35:18;;;;;;;0.85;0.65;;;17.80;47.20;;;;;;6315318;22;20135;-81
2023/04/08 00:37:44;;;;;;;0.70;0.60;;;17.80;47.30;;;;;;6342766;22;20158;-81
2023/04/08 00:40:11;;;;;;;0.60;0.60;;;17.80;47.30;;;;;;6314707;22;20131;-81
2023/04/08 00:42:37;;;;;;;0.90;0.80;;;17.80;47.40;;;;;;6342709;22;20135;-81
2023/04/08 00:45:07;;;;;;;0.77;0.77;;;17.80;47.30;;;;;;6342362;22;20436;-82
2023/04/08 00:47:35;;;;;;;0.68;0.60;;;17.70;47.50;;;;;;6263064;22;20186;-81
2023/04/08 00:50:01;;;;;;;0.50;0.50;;;17.80;47.40;;;;;;6342131;22;20135;-80
2023/04/08 00:52:27;;;;;;;0.70;0.70;;;17.80;47.50;;;;;;6288574;22;20151;-81
2023/04/08 00:54:53;;;;;;;0.60;0.60;;;17.70;47.50;;;;;;6342189;22;20127;-81
2023/04/08 00:57:18;;;;;;;0.73;0.60;;;17.80;47.50;;;;;;6342137;22;20136;-81
2023/04/08 00:59:44;;;;;;;0.70;0.70;;;17.80;47.50;;;;;;6314503;22;20140;-81
2023/04/08 01:02:41;;;;;;;0.80;0.80;;;17.80;47.50;;;;;;6342073;22;20135;-81
2023/04/08 01:05:13;;;;;;;0.70;0.70;;;17.80;47.40;;;;;;6342103;22;20132;-81
2023/04/08 01:07:45;;;;;;;0.65;0.65;;;17.80;47.50;;;;;;6314144;22;20179;-81
2023/04/08 01:10:17;;;;;;;0.80;0.60;;;17.80;47.50;;;;;;6342011;22;20128;-80
2023/04/08 01:12:47;;;;;;;0.60;0.60;;;17.80;47.60;;;;;;6341645;22;20201;-81
2023/04/08 01:15:13;;;;;;;0.50;0.50;;;17.70;47.50;;;;;;6314061;22;20451;-80
2023/04/08 01:17:39;;;;;;;0.60;0.60;;;17.80;47.60;;;;;;6341861;22;20624;-81
2023/04/08 01:20:05;;;;;;;0.60;0.60;;;17.80;47.50;;;;;;6341977;22;20142;-81
2023/04/08 01:23:10;;;;;;;0.57;0.57;;;17.80;47.60;;;;;;6341438;22;20219;-81
2023/04/08 01:25:37;;;;;;;0.70;0.70;;;17.70;47.60;;;;;;6341878;22;20135;-81
2023/04/08 01:28:07;;;;;;;0.70;0.70;;;17.70;47.60;;;;;;6314072;22;20159;-81
2023/04/08 01:30:33;;;;;;;0.60;0.60;;;17.70;47.60;;;;;;6341478;22;20128;-80
2023/04/08 01:32:59;;;;;;;0.70;0.70;;;17.70;47.60;;;;;;6313982;22;20147;-81
2023/04/08 01:35:30;;;;;;;0.50;0.50;;;17.70;47.70;;;;;;6314104;22;20292;-81
2023/04/08 01:37:55;;;;;;;0.60;0.60;;;17.70;47.50;;;;;;6237353;22;20155;-81
2023/04/08 01:40:21;;;;;;;0.63;0.60;;;17.70;47.60;;;;;;6341516;22;20136;-81
2023/04/08 01:42:48;;;;;;;0.75;0.75;;;17.70;47.50;;;;;;6314022;22;20159;-81
2023/04/08 01:45:15;;;;;;;0.70;0.70;;;17.70;47.70;;;;;;6342021;22;20190;-81
2023/04/08 01:47:41;;;;;;;1.13;0.77;;;17.60;47.70;;;;;;6314134;22;20162;-81
2023/04/08 01:50:07;;;;;;;0.85;0.82;;;17.70;47.60;;;;;;6341841;22;20131;-81
2023/04/08 01:52:34;;;;;;;0.80;0.60;;;17.70;47.60;;;;;;6341839;22;20127;-82
2023/04/08 01:55:00;;;;;;;0.65;0.65;;;17.70;47.60;;;;;;6341652;22;20162;-81
2023/04/08 01:57:27;;;;;;;0.80;0.70;;;17.70;47.70;;;;;;6341509;22;20153;-82
2023/04/08 01:59:55;;;;;;;0.70;0.63;;;17.70;47.60;;;;;;6313894;22;20155;-81
2023/04/08 02:02:21;;;;;;;0.60;0.60;;;17.70;47.70;;;;;;6341568;22;20132;-82
2023/04/08 02:04:47;;;;;;;0.80;0.70;;;17.70;47.60;;;;;;6313784;22;20132;-80
2023/04/08 02:07:13;;;;;;;0.80;0.77;;;17.70;47.70;;;;;;6341389;22;20167;-81
2023/04/08 02:09:39;;;;;;;0.68;0.68;;;17.70;47.60;;;;;;6313989;22;20551;-82
2023/04/08 02:12:05;;;;;;;0.60;0.60;;;17.70;47.80;;;;;;6313575;22;20674;-82
2023/04/08 02:14:31;;;;;;;0.60;0.60;;;17.70;47.70;;;;;;6313572;22;20193;-82
2023/04/08 02:17:07;;;;;;;0.85;0.70;;;17.70;47.80;;;;;;6341660;22;20144;-81
2023/04/08 02:19:50;;;;;;;0.90;0.60;;;17.70;47.60;;;;;;6263544;22;20158;-82
2023/04/08 02:22:30;;;;;;;0.75;0.75;;;17.80;47.80;;;;;;6341709;22;20136;-81
2023/04/08 02:24:57;;;;;;;0.60;0.60;;;17.70;47.70;;;;;;6342288;22;20163;-82
2023/04/08 02:27:23;;;;;;;0.65;0.63;;;17.70;47.80;;;;;;6340922;22;20548;-81
2023/04/08 02:29:49;;;;;;;0.73;0.73;;;17.70;47.70;;;;;;6341365;22;20498;-80
2023/04/08 02:32:15;;;;;;;0.70;0.70;;;17.70;47.80;;;;;;6341658;22;20238;-81
2023/04/08 02:34:41;;;;;;;0.52;0.52;;;17.70;47.70;;;;;;6341475;22;20128;-81
2023/04/08 02:37:08;;;;;;;0.60;0.60;;;17.70;47.80;;;;;;6341540;22;20155;-81
2023/04/08 02:39:34;;;;;;;0.68;0.68;;;17.70;47.80;;;;;;6341227;22;20158;-81
2023/04/08 02:42:00;;;;;;;0.88;0.70;;;17.70;48.40;;;;;;6312886;22;20539;-81
2023/04/08 02:44:25;;;;;;;0.65;0.63;;;17.70;47.80;;;;;;6341500;22;20165;-81
2023/04/08 02:46:51;;;;;;;0.70;0.70;;;17.80;47.90;;;;;;6341099;22;20167;-81
2023/04/08 02:49:17;;;;;;;0.70;0.70;;;17.70;47.80;;;;;;6341119;22;20143;-82
2023/04/08 02:51:43;;;;;;;0.70;0.70;;;17.70;47.80;;;;;;6340893;22;20543;-81
2023/04/08 02:54:09;;;;;;;0.55;0.55;;;17.70;47.90;;;;;;6341244;22;20142;-81
2023/04/08 02:56:35;;;;;;;0.70;0.70;;;17.70;47.90;;;;;;6313677;22;20203;-81
2023/04/08 02:59:05;;;;;;;0.52;0.52;;;17.70;47.80;;;;;;6313184;22;20143;-81
2023/04/08 03:01:31;;;;;;;0.50;0.50;;;17.70;47.70;;;;;;6261208;22;20152;-81
2023/04/08 03:03:57;;;;;;;0.70;0.70;;;17.70;47.90;;;;;;6341097;22;20132;-81
2023/04/08 03:06:22;;;;;;;0.57;0.50;;;17.70;47.70;;;;;;6313229;22;20139;-81
2023/04/08 03:08:48;;;;;;;0.70;0.70;;;17.70;47.60;;;;;;6313286;22;20155;-81
2023/04/08 03:11:18;;;;;;;0.70;0.70;;;17.70;47.80;;;;;;6341229;22;20210;-82
2023/04/08 03:13:45;;;;;;;0.73;0.50;;;17.70;47.90;;;;;;6261672;22;20194;-81
2023/04/08 03:16:11;;;;;;;0.93;0.70;;;17.70;47.90;;;;;;6341198;22;20135;-82
2023/04/08 03:18:37;;;;;;;0.70;0.70;;;17.70;47.60;;;;;;6340931;22;20206;-82
2023/04/08 03:21:03;;;;;;;0.95;0.77;;;17.70;47.80;;;;;;6313683;22;20132;-81
2023/04/08 03:23:29;;;;;;;0.70;0.70;;;17.70;47.80;;;;;;6313298;22;20226;-82
2023/04/08 03:25:55;;;;;;;0.73;0.73;;;17.70;48.00;;;;;;6312857;22;20175;-81
2023/04/08 03:28:21;;;;;;;0.70;0.70;;;17.70;48.00;;;;;;6341368;22;20162;-82
2023/04/08 03:30:47;;;;;;;0.60;0.60;;;17.60;48.00;;;;;;6341127;22;20136;-82
2023/04/08 03:33:12;;;;;;;0.60;0.60;;;17.60;48.10;;;;;;6340834;22;20131;-81
2023/04/08 03:35:38;;;;;;;0.63;0.63;;;17.60;48.00;;;;;;6340961;22;20128;-82
2023/04/08 03:38:04;;;;;;;0.82;0.75;;;17.60;48.10;;;;;;6340917;22;20167;-81
2023/04/08 03:40:30;;;;;;;0.70;0.70;;;17.70;48.20;;;;;;6340567;22;20136;-81
2023/04/08 03:42:56;;;;;;;0.70;0.70;;;17.60;48.20;;;;;;6286873;22;20548;-81
2023/04/08 03:45:24;;;;;;;0.70;0.70;;;17.60;48.20;;;;;;6341406;22;20483;-81
2023/04/08 03:47:49;;;;;;;0.60;0.60;;;17.60;48.20;;;;;;6340897;22;20218;-81
2023/04/08 03:50:15;;;;;;;0.73;0.73;;;17.60;48.00;;;;;;6340976;22;20507;-81
2023/04/08 03:52:41;;;;;;;0.63;0.63;;;17.60;47.90;;;;;;6313209;22;20137;-81
2023/04/08 03:55:08;;;;;;;0.80;0.80;;;17.60;48.00;;;;;;6341011;22;20131;-81
2023/04/08 03:57:34;;;;;;;0.60;0.60;;;17.60;48.00;;;;;;6340838;22;20135;-82
2023/04/08 04:00:00;;;;;;;0.60;0.60;;;17.60;48.10;;;;;;6312853;22;20143;-82
2023/04/08 04:02:26;;;;;;;0.68;0.68;;;17.60;47.90;;;;;;6340769;22;20142;-82
2023/04/08 04:04:55;;;;;;;0.60;0.60;;;17.60;48.00;;;;;;6313256;22;20199;-81
2023/04/08 04:07:21;;;;;;;0.63;0.63;;;17.60;47.90;;;;;;6261437;22;20175;-81
2023/04/08 04:09:47;;;;;;;0.57;0.57;;;17.60;48.20;;;;;;6312840;22;20139;-82
2023/04/08 04:12:13;;;;;;;0.73;0.70;;;17.60;48.20;;;;;;6340585;22;20185;-82
2023/04/08 04:14:39;;;;;;;0.73;0.73;;;17.60;48.20;;;;;;6341260;22;20523;-82
2023/04/08 04:17:04;;;;;;;1.08;0.98;;;17.60;48.00;;;;;;6341140;22;20223;-81
2023/04/08 04:19:31;;;;;;;0.65;0.65;;;17.60;48.10;;;;;;6340953;22;20210;-81
2023/04/08 04:21:56;;;;;;;0.60;0.60;;;17.50;48.20;;;;;;6340842;22;20509;-81
2023/04/08 04:24:22;;;;;;;0.70;0.70;;;17.60;48.20;;;;;;6340445;22;20167;-81
2023/04/08 04:26:48;;;;;;;0.70;0.70;;;17.60;48.30;;;;;;6340549;22;20163;-80
2023/04/08 04:29:14;;;;;;;1.13;0.82;;;17.60;48.30;;;;;;6312278;22;20139;-81
2023/04/08 04:31:40;;;;;;;0.77;0.70;;;17.60;48.30;;;;;;6340641;22;20439;-82
2023/04/08 04:34:06;;;;;;;0.63;0.63;;;17.60;48.30;;;;;;6341206;22;20210;-82
2023/04/08 04:36:32;;;;;;;0.70;0.70;;;17.60;48.30;;;;;;6341067;22;20132;-81
2023/04/08 04:38:58;;;;;;;0.70;0.70;;;17.50;48.10;;;;;;6340884;22;20132;-81
2023/04/08 04:41:26;;;;;;;0.60;0.60;;;17.60;48.20;;;;;;6312990;22;20138;-81
2023/04/08 04:43:52;;;;;;;0.68;0.68;;;17.60;48.30;;;;;;6312031;22;20210;-81
2023/04/08 04:46:18;;;;;;;0.50;0.50;;;17.60;48.30;;;;;;6339852;22;20180;-81
2023/04/08 04:48:44;;;;;;;0.75;0.75;;;17.60;48.50;;;;;;6311836;22;20167;-82
2023/04/08 04:51:10;;;;;;;0.60;0.60;;;17.60;48.40;;;;;;6312313;22;20158;-80
2023/04/08 04:53:36;;;;;;;0.60;0.60;;;17.60;48.30;;;;;;6339572;22;20132;-82
2023/04/08 04:56:02;;;;;;;0.90;0.80;;;17.60;48.30;;;;;;6286484;22;20170;-81
2023/04/08 04:58:28;;;;;;;0.55;0.50;;;17.60;48.50;;;;;;6339810;22;20143;-81
2023/04/08 05:00:55;;;;;;;0.80;0.68;;;17.50;48.30;;;;;;6340085;22;20136;-82
2023/04/08 05:03:20;;;;;;;0.60;0.60;;;17.50;48.50;;;;;;6338342;22;20205;-80
2023/04/08 05:05:52;;;;;;;0.80;0.80;;;17.60;48.50;;;;;;6286317;22;20443;-81
2023/04/08 05:08:18;;;;;;;0.80;0.65;;;17.60;48.30;;;;;;6261514;22;20568;-81
2023/04/08 05:10:43;;;;;;;0.60;0.60;;;17.60;49.00;;;;;;6340792;22;20162;-81
2023/04/08 05:13:09;;;;;;;0.63;0.60;;;17.60;48.30;;;;;;6312664;22;20244;-81
2023/04/08 05:15:35;;;;;;;0.65;0.63;;;17.60;48.50;;;;;;6340382;22;20284;-80
2023/04/08 05:18:01;;;;;;;0.70;0.70;;;17.60;48.20;;;;;;6340436;22;20142;-81
2023/04/08 05:20:26;;;;;;;0.57;0.57;;;17.60;48.30;;;;;;6340558;22;20132;-81
2023/04/08 05:22:52;;;;;;;0.63;0.63;;;17.60;48.30;;;;;;6340748;22;20139;-79
2023/04/08 05:25:18;;;;;;;0.80;0.80;;;17.60;48.40;;;;;;6340733;22;20143;-81
2023/04/08 05:27:44;;;;;;;0.55;0.55;;;17.60;48.30;;;;;;6340467;22;20167;-80
2023/04/08 05:30:10;;;;;;;0.70;0.70;;;17.60;48.10;;;;;;6340586;22;20151;-81
2023/04/08 05:32:36;;;;;;;0.75;0.75;;;17.60;48.10;;;;;;6313098;22;20134;-81
2023/04/08 05:35:02;;;;;;;0.80;0.80;;;17.70;48.10;;;;;;6261546;22;20163;-81
2023/04/08 05:37:28;;;;;;;0.75;0.75;;;17.70;48.20;;;;;;6287196;22;20140;-80
2023/04/08 05:39:54;;;;;;;0.77;0.77;;;17.60;48.10;;;;;;6340230;22;20143;-81
2023/04/08 05:42:19;;;;;;;0.70;0.70;;;17.70;48.00;;;;;;6312732;22;20135;-81
2023/04/08 05:44:45;;;;;;;0.65;0.63;;;17.70;48.00;;;;;;6340231;22;20163;-80
2023/04/08 05:47:11;;;;;;;0.57;0.52;;;17.70;48.20;;;;;;6340355;22;20202;-80
2023/04/08 05:49:37;;;;;;;0.80;0.80;;;17.70;47.80;;;;;;6340518;22;20136;-80
2023/04/08 05:52:03;;;;;;;0.60;0.60;;;17.80;47.90;;;;;;6340146;22;20244;-81
2023/04/08 05:54:29;;;;;;;0.52;0.52;;;17.80;47.90;;;;;;6340113;22;20135;-82
2023/04/08 05:56:55;;;;;;;0.60;0.60;;;17.80;47.80;;;;;;6340129;22;20214;-81
2023/04/08 05:59:20;;;;;;;0.70;0.70;;;17.80;47.90;;;;;;6339998;22;20210;-81
2023/04/08 06:01:46;;;;;;;0.50;0.50;;;17.80;48.00;;;;;;6340345;22;20225;-80
2023/04/08 06:04:11;;;;;;;0.80;0.80;;;17.70;48.00;;;;;;6340548;22;20147;-80
2023/04/08 06:06:38;;;;;;;0.60;0.60;;;17.70;47.90;;;;;;6339975;22;20637;-81
2023/04/08 06:09:04;;;;;;;0.90;0.80;;;17.80;48.00;;;;;;6312730;22;20127;-81
2023/04/08 06:11:30;;;;;;;0.47;0.45;;;17.80;47.90;;;;;;6312143;22;20185;-80
2023/04/08 06:13:56;;;;;;;0.93;0.82;;;17.80;48.00;;;;;;6312220;22;20195;-80
2023/04/08 06:16:22;;;;;;;0.90;0.90;;;17.70;48.00;;;;;;6311946;22;20124;-80
2023/04/08 06:18:48;;;;;;;0.70;0.70;;;17.80;47.90;;;;;;6339894;22;20501;-80
2023/04/08 06:21:14;;;;;;;1.00;0.90;;;17.80;47.80;;;;;;6340447;22;20193;-80
2023/04/08 06:23:40;;;;;;;0.93;0.77;;;17.90;47.80;;;;;;6339831;22;20128;-81
2023/04/08 06:26:05;;;;;;;0.68;0.65;;;17.80;47.80;;;;;;6340146;22;20462;-81
2023/04/08 06:28:31;;;;;;;0.68;0.60;;;17.80;47.90;;;;;;6339700;22;20166;-81
2023/04/08 06:30:58;;;;;;;0.80;0.80;;;17.80;47.90;;;;;;6339744;22;20138;-81
2023/04/08 06:33:24;;;;;;;0.63;0.63;;;17.80;47.80;;;;;;6312228;22;20138;-80
2023/04/08 06:35:50;;;;;;;0.70;0.70;;;17.90;47.60;;;;;;6339831;22;20169;-81
2023/04/08 06:38:16;;;;;;;1.08;0.80;;;17.90;47.60;;;;;;6340693;22;20136;-80
2023/04/08 06:40:42;;;;;;;0.80;0.80;;;17.90;47.60;;;;;;6340222;22;20161;-80
2023/04/08 06:43:07;;;;;;;0.70;0.70;;;17.90;47.60;;;;;;6341683;22;20593;-81
2023/04/08 06:45:34;;;;;;;0.70;0.70;;;17.90;47.60;;;;;;6340897;22;20439;-81
2023/04/08 06:48:00;;;;;;;0.80;0.70;;;17.90;47.80;;;;;;6312627;22;20212;-80
2023/04/08 06:50:25;;;;;;;0.52;0.52;;;17.90;47.60;;;;;;6312506;22;20151;-81
2023/04/08 06:52:51;;;;;;;0.70;0.70;;;17.90;47.50;;;;;;6339623;22;20574;-80
2023/04/08 06:55:17;;;;;;;0.85;0.85;;;17.90;47.50;;;;;;6309268;22;20283;-80
2023/04/08 06:57:42;;;;;;;0.73;0.73;;;18.00;47.60;;;;;;6304642;22;20136;-81
2023/04/08 07:00:09;;;;;;;0.93;0.82;;;17.90;47.60;;;;;;6335812;22;20131;-80
2023/04/08 07:02:35;;;;;;;0.70;0.70;;;18.00;47.60;;;;;;6312514;22;20162;-81
2023/04/08 07:05:01;;;;;;;1.00;0.90;;;17.90;47.60;;;;;;6340836;22;20521;-80
2023/04/08 07:07:26;;;;;;;0.98;0.80;;;18.00;47.70;;;;;;6339755;22;20601;-79
2023/04/08 07:09:54;;;;;;;0.85;0.77;;;18.00;47.50;;;;;;6312455;22;20155;-80
2023/04/08 07:12:22;;;;;;;0.63;0.63;;;18.00;47.60;;;;;;6252058;22;20195;-80
2023/04/08 07:14:47;;;;;;;0.80;0.80;;;17.90;47.70;;;;;;6230598;22;20163;-80
2023/04/08 07:17:14;;;;;;;0.70;0.70;;;18.00;47.70;;;;;;6311484;22;20140;-80
2023/04/08 07:19:42;;;;;;;0.80;0.80;;;18.00;47.70;;;;;;6232257;22;20148;-80
2023/04/08 07:22:10;;;;;;;0.90;0.90;;;18.00;47.40;;;;;;6232181;22;20152;-80
2023/04/08 07:24:36;;;;;;;0.80;0.80;;;18.00;47.40;;;;;;6231104;22;20160;-80
2023/04/08 07:27:02;;;;;;;0.70;0.70;;;18.00;47.30;;;;;;6255835;22;20176;-80
2023/04/08 07:29:29;;;;;;;2.15;0.77;;;18.10;47.10;;;;;;6308651;22;20262;-80
2023/04/08 07:31:55;;;;;;;0.50;0.50;;;18.20;47.00;;;;;;6282078;22;20572;-80
2023/04/08 07:34:21;;;;;;;1.23;0.77;;;18.20;47.10;;;;;;6309985;22;20163;-79
2023/04/08 07:36:47;;;;;;;0.70;0.70;;;18.20;47.20;;;;;;6310312;22;20555;-80
2023/04/08 07:39:13;;;;;;;0.70;0.70;;;18.10;47.20;;;;;;6283103;22;20166;-80
2023/04/08 07:41:39;;;;;;;0.70;0.63;;;18.20;47.10;;;;;;6283226;22;20158;-81
2023/04/08 07:44:05;;;;;;;1.00;0.75;;;18.20;47.10;;;;;;6308937;22;20211;-80
2023/04/08 07:46:32;;;;;;;0.70;0.68;;;18.20;47.20;;;;;;6282679;22;20135;-80
2023/04/08 07:48:58;;;;;;;0.65;0.65;;;18.20;47.20;;;;;;6282998;22;20247;-81
2023/04/08 07:51:26;;;;;;;0.60;0.60;;;18.20;47.10;;;;;;6309721;22;20605;-80
2023/04/08 07:53:52;;;;;;;0.57;0.57;;;18.30;46.70;;;;;;6282213;22;20136;-81
2023/04/08 07:56:18;;;;;;;0.70;0.70;;;18.30;46.80;;;;;;6308582;22;20280;-81
2023/04/08 07:58:44;;;;;;;0.50;0.50;;;18.30;46.90;;;;;;6307883;22;20211;-81
2023/04/08 08:01:17;;;;;;;1.40;0.70;;;18.30;46.70;;;;;;6310457;22;20146;-80
2023/04/08 08:03:43;;;;;;;0.70;0.68;;;18.40;46.60;;;;;;6309012;22;20136;-80
2023/04/08 08:06:10;;;;;;;0.65;0.65;;;18.40;46.50;;;;;;6282760;22;20193;-81
2023/04/08 08:08:36;;;;;;;0.70;0.70;;;18.40;46.70;;;;;;6255345;22;20606;-81
2023/04/08 08:11:02;;;;;;;0.80;0.73;;;18.40;46.70;;;;;;6307845;22;20154;-80
2023/04/08 08:13:27;;;;;;;0.82;0.80;;;18.40;46.80;;;;;;6329624;22;20191;-80
2023/04/08 08:15:53;;;;;;;0.60;0.60;;;18.30;47.30;;;;;;6310993;22;20150;-82
2023/04/08 08:18:19;;;;;;;1.25;0.70;;;18.40;47.30;;;;;;6339010;22;20203;-81
2023/04/08 08:20:45;;;;;;;1.17;0.80;;;18.30;47.10;;;;;;6339157;22;20131;-81
2023/04/08 08:23:10;;;;;;;1.73;0.70;;;18.50;47.10;;;;;;6285767;22;20135;-81
2023/04/08 08:25:36;;;;;;;0.70;0.70;;;18.40;46.90;;;;;;6338887;22;20235;-81
2023/04/08 08:28:01;;;;;;;0.70;0.70;;;18.50;46.90;;;;;;6311265;22;20156;-81
2023/04/08 08:30:27;;;;;;;0.60;0.60;;;18.50;46.70;;;;;;6285566;22;20144;-81
2023/04/08 08:32:53;;;;;;;0.52;0.52;;;18.50;46.60;;;;;;6339109;22;20470;-81
2023/04/08 08:35:19;;;;;;;0.60;0.60;;;18.40;46.80;;;;;;6339341;22;20128;-81
2023/04/08 08:37:44;;;;;;;0.73;0.60;;;18.50;46.60;;;;;;6338738;22;20155;-81
2023/04/08 08:40:11;;;;;;;0.68;0.68;;;18.50;46.60;;;;;;6339494;22;20142;-81
2023/04/08 08:42:36;;;;;;;0.60;0.60;;;18.50;46.40;;;;;;6340802;22;20460;-81
2023/04/08 08:45:02;;;;;;;0.65;0.65;;;18.50;46.30;;;;;;6313519;22;20146;-81
2023/04/08 08:47:28;;;;;;;0.70;0.60;;;18.50;46.40;;;;;;6340932;22;20159;-81
2023/04/08 08:49:54;;;;;;;0.60;0.60;;;18.50;46.20;;;;;;6313637;22;20136;-81
2023/04/08 08:52:20;;;;;;;0.60;0.60;;;18.50;46.30;;;;;;6340678;22;20206;-80
2023/04/08 08:54:46;;;;;;;0.60;0.50;;;18.50;46.50;;;;;;6340923;22;20521;-80
2023/04/08 08:57:18;;;;;;;0.50;0.50;;;18.50;46.30;;;;;;6313023;22;20214;-79
2023/04/08 08:59:46;;;;;;;0.77;0.60;;;18.60;46.00;;;;;;6313215;22;20135;-80
2023/04/08 09:02:28;;;;;;;0.63;0.50;;;18.50;46.10;;;;;;6313053;22;20131;-81
2023/04/08 09:04:59;;;;;;;0.80;0.60;;;18.50;46.20;;;;;;6313422;22;20131;-81
2023/04/08 09:07:25;;;;;;;0.52;0.52;;;18.40;46.40;;;;;;6313348;22;20170;-80
2023/04/08 09:09:51;;;;;;;0.60;0.60;;;18.50;46.30;;;;;;6313243;22;20523;-81
2023/04/08 09:12:17;;;;;;;0.68;0.68;;;18.50;46.20;;;;;;6307579;22;20180;-81
2023/04/08 09:14:42;;;;;;;0.50;0.50;;;18.40;46.40;;;;;;6308223;22;20214;-81
2023/04/08 09:17:08;;;;;;;0.40;0.40;;;18.50;46.50;;;;;;6282289;22;20132;-81
2023/04/08 09:19:34;;;;;;;0.50;0.50;;;18.50;46.20;;;;;;6307775;22;20556;-81
2023/04/08 09:22:05;;;;;;;0.60;0.45;;;18.50;46.10;;;;;;6309423;22;20132;-81
2023/04/08 09:24:31;;;;;;;0.50;0.50;;;18.40;46.50;;;;;;6308564;22;20475;-81
2023/04/08 09:26:57;;;;;;;0.50;0.50;;;18.40;46.40;;;;;;6309660;22;20164;-81
2023/04/08 09:29:24;;;;;;;0.60;0.60;;;18.50;46.10;;;;;;6307996;22;20170;-81
2023/04/08 09:31:53;;;;;;;0.40;0.40;;;18.50;46.20;;;;;;6286938;22;20147;-81
2023/04/08 09:34:19;;;;;;;0.85;0.70;;;18.60;46.10;;;;;;6340649;22;20218;-80
2023/04/08 09:36:47;;;;;;;0.50;0.50;;;18.60;45.90;;;;;;6339879;22;20235;-81
2023/04/08 09:39:13;;;;;;;0.60;0.60;;;18.60;46.20;;;;;;6340843;22;20479;-81
2023/04/08 09:41:43;;;;;;;0.50;0.50;;;18.50;46.20;;;;;;6340194;22;20452;-81
2023/04/08 09:44:10;;;;;;;0.50;0.50;;;18.50;45.70;;;;;;6235493;22;20158;-81
2023/04/08 09:46:46;;;;;;;0.50;0.50;;;18.50;45.70;;;;;;6312877;22;20135;-81
2023/04/08 09:49:33;;;;;;;0.40;0.32;;;18.50;45.90;;;;;;6313119;22;20139;-81
2023/04/08 09:52:08;;;;;;;0.38;0.38;;;18.60;45.70;;;;;;6290798;22;20231;-82
2023/04/08 09:54:58;;;;;;;0.50;0.50;;;18.60;45.60;;;;;;6287442;22;20619;-81
2023/04/08 09:57:32;;;;;;;0.55;0.55;;;18.60;45.50;;;;;;6316108;22;20159;-81
2023/04/08 10:00:09;;;;;;;0.50;0.50;;;18.60;45.60;;;;;;6313603;22;20201;-81
2023/04/08 10:02:44;;;;;;;0.60;0.57;;;18.60;45.70;;;;;;6340027;22;20127;-81
2023/04/08 10:05:11;;;;;;;0.50;0.50;;;18.60;45.70;;;;;;6340321;22;20512;-81
2023/04/08 10:07:37;;;;;;;0.95;0.60;;;18.60;45.40;;;;;;6312782;22;20217;-81
2023/04/08 10:10:04;;;;;;;0.40;0.40;;;18.60;45.70;;;;;;6339854;22;20135;-81
2023/04/08 10:12:30;;;;;;;0.40;0.40;;;18.60;45.40;;;;;;6339655;22;20733;-81
2023/04/08 10:15:24;;;;;;;0.70;0.60;;;18.60;45.80;;;;;;6261133;22;20182;-81
2023/04/08 10:17:51;;;;;;;0.43;0.43;;;18.60;45.90;;;;;;6340283;22;20210;-81
2023/04/08 10:20:41;;;;;;;0.52;0.52;;;18.50;45.80;;;;;;6339978;22;20166;-81
2023/04/08 10:23:08;;;;;;;0.45;0.45;;;18.60;45.50;;;;;;6312263;22;20174;-81
2023/04/08 10:25:36;;;;;;;0.43;0.43;;;18.60;45.40;;;;;;6312903;22;20139;-81
2023/04/08 10:28:22;;;;;;;0.60;0.60;;;18.60;45.70;;;;;;6339671;22;20159;-81
2023/04/08 10:30:50;;;;;;;0.47;0.47;;;18.50;45.20;;;;;;6340034;22;20139;-81
2023/04/08 10:33:18;;;;;;;0.45;0.43;;;18.50;45.60;;;;;;6312905;22;20127;-81
2023/04/08 10:35:47;;;;;;;0.40;0.40;;;18.60;45.10;;;;;;6286375;22;20143;-81
2023/04/08 10:38:14;;;;;;;0.50;0.50;;;18.60;45.40;;;;;;6339773;22;20578;-81
2023/04/08 10:40:41;;;;;;;0.40;0.40;;;18.60;45.30;;;;;;6312449;22;20154;-81
2023/04/08 10:43:08;;;;;;;0.68;0.50;;;18.60;45.50;;;;;;6312530;22;20128;-81
2023/04/08 10:45:34;;;;;;;0.40;0.40;;;18.60;44.90;;;;;;6339511;22;20491;-81
2023/04/08 10:48:16;;;;;;;0.40;0.40;;;18.60;45.60;;;;;;6339977;22;20160;-81
2023/04/08 10:50:44;;;;;;;0.43;0.43;;;18.60;45.00;;;;;;6312009;22;20146;-81
2023/04/08 10:53:10;;;;;;;0.30;0.30;;;18.60;44.60;;;;;;6311912;22;20150;-81
2023/04/08 10:55:35;;;;;;;2.58;0.50;;;18.60;45.10;;;;;;6312425;22;20131;-81
2023/04/08 10:58:05;;;;;;;0.50;0.50;;;18.60;44.70;;;;;;6339740;22;20139;-81
2023/04/08 11:00:35;;;;;;;0.50;0.50;;;18.60;44.80;;;;;;6312851;22;20532;-81
2023/04/08 11:03:03;;;;;;;0.40;0.40;;;18.60;45.10;;;;;;6260981;22;20144;-81
2023/04/08 11:05:30;;;;;;;0.40;0.40;;;18.60;45.40;;;;;;6339464;22;20157;-81
2023/04/08 11:07:56;;;;;;;0.40;0.40;;;18.60;44.90;;;;;;6340091;22;20170;-81
2023/04/08 11:10:22;;;;;;;0.40;0.40;;;18.60;45.20;;;;;;6312205;22;20555;-82
2023/04/08 11:12:48;;;;;;;0.35;0.35;;;18.60;44.50;;;;;;6339193;22;20185;-81
2023/04/08 11:15:14;;;;;;;0.40;0.40;;;18.60;45.00;;;;;;6312103;22;20174;-81
2023/04/08 11:17:41;;;;;;;0.40;0.40;;;18.60;44.60;;;;;;6339623;22;20131;-81
2023/04/08 11:20:08;;;;;;;0.40;0.40;;;18.60;44.50;;;;;;6339487;22;20444;-81
2023/04/08 11:22:34;;;;;;;0.40;0.40;;;18.60;44.90;;;;;;6286061;22;20470;-81
2023/04/08 11:25:00;;;;;;;0.40;0.40;;;18.60;44.70;;;;;;6339413;22;20131;-81
2023/04/08 11:27:26;;;;;;;0.40;0.40;;;18.60;44.60;;;;;;6339106;22;20164;-81
2023/04/08 11:29:54;;;;;;;0.65;0.50;;;18.60;45.30;;;;;;6339387;22;20127;-81
2023/04/08 11:32:19;;;;;;;0.55;0.30;;;18.60;44.80;;;;;;6311805;22;20219;-81
2023/04/08 11:34:46;;;;;;;0.40;0.40;;;18.60;44.50;;;;;;6339279;22;20255;-81
2023/04/08 11:37:12;;;;;;;0.80;0.55;;;18.60;44.30;;;;;;6312314;22;20139;-81
2023/04/08 11:39:42;;;;;;;0.63;0.50;;;18.60;44.50;;;;;;6339201;22;20559;-81
2023/04/08 11:42:08;;;;;;;0.40;0.40;;;18.60;44.60;;;;;;6311928;22;20132;-81
2023/04/08 11:44:34;;;;;;;0.30;0.30;;;18.60;44.30;;;;;;6339226;22;20197;-82
2023/04/08 11:47:01;;;;;;;0.40;0.40;;;18.60;44.40;;;;;;6340586;22;20143;-80
2023/04/08 11:49:45;;;;;;;0.40;0.40;;;18.70;44.20;;;;;;6312412;22;20127;-82
2023/04/08 11:52:11;;;;;;;0.32;0.32;;;18.60;44.40;;;;;;6312749;22;20192;-82
2023/04/08 11:54:40;;;;;;;1.27;0.32;;;18.60;44.10;;;;;;6339560;22;20591;-81
2023/04/08 11:57:16;;;;;;;;;;;;;;;;;;;;;
2023/04/08 11:59:42;;;;;;;0.32;0.32;;;18.70;44.20;;;;;;6284940;22;20226;-82
2023/04/08 12:02:16;;;;;;;0.40;0.40;;;18.60;44.50;;;;;;6339251;22;20477;-81
2023/04/08 12:04:42;;;;;;;0.47;0.35;;;18.60;43.70;;;;;;6312641;22;20139;-81
2023/04/08 12:07:09;;;;;;;1.05;0.50;;;18.60;44.30;;;;;;6339636;22;20163;-82
2023/04/08 12:09:39;;;;;;;0.40;0.40;;;18.60;43.80;;;;;;6313610;22;20230;-81
2023/04/08 12:12:08;;;;;;;0.50;0.50;;;18.60;43.90;;;;;;6314187;22;20186;-81
2023/04/08 12:14:34;;;;;;;0.70;0.47;;;18.70;44.20;;;;;;6340472;22;20448;-81
2023/04/08 12:17:00;;;;;;;0.63;0.50;;;18.60;44.00;;;;;;6312814;22;20131;-81
2023/04/08 12:19:26;;;;;;;0.30;0.30;;;18.60;44.10;;;;;;6339553;22;20131;-81
2023/04/08 12:21:52;;;;;;;1.33;0.47;;;18.70;43.70;;;;;;6340637;22;20197;-81
2023/04/08 12:24:22;;;;;;;0.60;0.30;;;18.60;44.10;;;;;;6314043;22;20630;-81
2023/04/08 12:26:48;;;;;;;0.50;0.30;;;18.50;44.40;;;;;;6260514;22;20151;-81
2023/04/08 12:29:14;;;;;;;0.45;0.45;;;18.60;43.50;;;;;;6341994;22;20470;-81
2023/04/08 12:31:40;;;;;;;1.10;0.35;;;18.60;44.20;;;;;;6311954;22;20567;-81
2023/04/08 12:34:06;;;;;;;0.30;0.30;;;18.70;43.40;;;;;;6339178;22;20132;-81
2023/04/08 12:36:32;;;;;;;1.23;0.50;;;18.60;44.30;;;;;;6285504;22;20222;-81
2023/04/08 12:38:58;;;;;;;0.70;0.50;;;18.60;43.70;;;;;;6311333;22;20159;-82
2023/04/08 12:41:24;;;;;;;1.10;0.75;;;18.70;43.90;;;;;;6311372;22;20139;-81
2023/04/08 12:43:50;;;;;;;0.50;0.43;;;18.70;43.40;;;;;;6339169;22;20150;-81
2023/04/08 12:46:16;;;;;;;0.40;0.40;;;18.70;43.20;;;;;;6339378;22;20155;-81
2023/04/08 12:48:44;;;;;;;0.40;0.40;;;18.70;43.50;;;;;;6338741;22;20193;-81